.
WxDataArchive / Data Records for 2007-04-02
2007-04-01 April 2007 2007-04-03

Data Records for Monday, 02 April 2007

Time	Temp	Chill	HIndex	Humid	Dewpt	 Wind 	HiWind	WindDir	Rain 	Barom 
-----	----	-----	------	-----	-----	------	------	-------	-----	----- 
00:00	52.3	52.3	52.3	69	42.4	1	3	248	0.00	29.777 
00:05	52.3	52.3	52.3	69	42.4	1	3	248	0.00	29.775 
00:10	52.0	52.0	52.0	69	42.1	1	4	270	0.00	29.776 
00:15	52.0	52.0	52.0	69	42.1	2	6	248	0.00	29.776 
00:20	52.0	52.0	52.0	68	41.8	2	9	225	0.00	29.778 
00:25	51.9	51.9	51.9	68	41.7	1	3	248	0.00	29.777 
00:30	51.7	51.7	51.7	69	41.9	2	6	248	0.00	29.779 
00:35	51.7	51.7	51.7	69	41.9	1	4	248	0.00	29.778 
00:40	51.6	51.6	51.6	69	41.8	1	4	248	0.00	29.778 
00:45	51.4	51.4	51.4	69	41.6	2	6	270	0.00	29.783 
00:50	51.4	51.4	51.4	69	41.6	2	5	248	0.00	29.784 
00:55	51.4	51.4	51.4	69	41.6	1	4	248	0.00	29.783 
01:00	51.1	51.1	51.1	70	41.7	2	6	248	0.00	29.783 
01:05	51.1	51.1	51.1	70	41.7	1	4	248	0.00	29.786 
01:10	51.0	51.0	51.0	70	41.6	2	4	270	0.00	29.786 
01:15	50.8	50.8	50.8	71	41.7	2	4	248	0.00	29.789 
01:20	50.5	50.5	50.5	71	41.5	1	4	248	0.00	29.793 
01:25	50.4	50.4	50.4	72	41.7	2	5	248	0.00	29.793 
01:30	50.2	50.2	50.2	72	41.5	1	3	248	0.00	29.792 
01:35	50.2	50.2	50.2	72	41.5	2	6	248	0.00	29.792 
01:40	50.2	50.2	50.2	72	41.5	2	5	270	0.00	29.792 
01:45	50.2	50.2	50.2	72	41.5	2	6	248	0.00	29.792 
01:50	50.2	50.2	50.2	72	41.5	2	6	248	0.00	29.792 
01:55	50.4	50.4	50.4	72	41.7	3	10	270	0.00	29.794 
02:00	50.2	50.2	50.2	72	41.5	3	7	248	0.00	29.792 
02:05	50.1	50.1	50.1	72	41.4	2	4	248	0.00	29.790 
02:10	49.9	49.9	49.9	73	41.6	2	6	248	0.00	29.791 
02:15	49.9	49.9	49.9	73	41.6	3	9	270	0.00	29.789 
02:20	49.8	49.8	49.8	73	41.5	2	6	270	0.00	29.789 
02:25	49.6	49.6	49.6	73	41.3	2	6	248	0.00	29.788 
02:30	49.5	49.5	49.5	74	41.6	2	5	248	0.00	29.790 
02:35	49.4	49.4	49.4	74	41.5	2	7	248	0.00	29.791 
02:40	49.2	49.2	49.2	74	41.3	2	4	248	0.00	29.792 
02:45	49.1	49.1	49.1	75	41.5	3	7	270	0.00	29.792 
02:50	49.1	49.1	49.1	75	41.5	3	6	270	0.00	29.793 
02:55	49.1	49.1	49.1	75	41.5	2	6	248	0.00	29.793 
03:00	49.1	49.1	49.1	75	41.5	3	9	248	0.00	29.794 
03:05	49.1	49.1	49.1	75	41.5	3	6	248	0.00	29.801 
03:10	49.1	49.1	49.1	74	41.2	3	7	248	0.00	29.802 
03:15	49.2	49.2	49.2	74	41.3	3	9	270	0.00	29.798 
03:20	49.2	49.2	49.2	75	41.6	3	9	248	0.00	29.799 
03:25	49.1	49.1	49.1	75	41.5	3	7	270	0.00	29.799 
03:30	49.1	47.2	49.1	75	41.5	5	12	248	0.00	29.796 
03:35	49.1	49.1	49.1	75	41.5	3	7	270	0.00	29.802 
03:40	48.9	48.9	48.9	75	41.3	3	9	248	0.00	29.805 
03:45	48.9	47.6	48.9	75	41.3	4	11	248	0.00	29.804 
03:50	49.1	49.1	49.1	74	41.2	3	10	248	0.00	29.807 
03:55	48.9	48.9	48.9	74	41.0	3	10	248	0.00	29.808 
04:00	48.9	48.9	48.9	73	40.6	3	11	270	0.00	29.806 
04:05	48.9	47.6	48.9	73	40.6	4	11	248	0.00	29.809 
04:10	48.9	48.9	48.9	73	40.6	3	6	270	0.00	29.806 
04:15	48.9	47.6	48.9	73	40.6	4	9	270	0.00	29.805 
04:20	48.9	48.9	48.9	73	40.6	3	6	248	0.00	29.803 
04:25	48.9	47.6	48.9	73	40.6	4	9	248	0.00	29.803 
04:30	49.1	47.8	49.1	72	40.5	4	9	270	0.00	29.806 
04:35	48.9	48.9	48.9	72	40.3	3	9	248	0.00	29.805 
04:40	48.8	48.8	48.8	73	40.5	3	9	248	0.00	29.809 
04:45	48.8	48.8	48.8	73	40.5	3	7	248	0.00	29.810 
04:50	48.8	48.8	48.8	73	40.5	3	11	248	0.00	29.810 
04:55	48.6	47.3	48.6	73	40.3	4	10	248	0.00	29.810 
05:00	48.6	48.6	48.6	73	40.3	3	6	248	0.00	29.810 
05:05	48.5	48.5	48.5	73	40.2	3	5	248	0.00	29.813 
05:10	48.3	48.3	48.3	73	40.1	3	9	248	0.00	29.814 
05:15	48.2	48.2	48.2	73	40.0	2	9	248	0.00	29.816 
05:20	48.0	48.0	48.0	73	39.8	2	6	248	0.00	29.820 
05:25	47.9	47.9	47.9	73	39.7	2	6	248	0.00	29.825 
05:30	47.7	47.7	47.7	73	39.5	2	5	248	0.00	29.828 
05:35	47.6	47.6	47.6	73	39.4	2	6	248	0.00	29.827 
05:40	47.4	47.4	47.4	74	39.5	2	4	248	0.00	29.829 
05:45	47.3	47.3	47.3	73	39.1	2	5	248	0.00	29.829 
05:50	47.3	47.3	47.3	73	39.1	3	7	248	0.00	29.830 
05:55	47.1	47.1	47.1	74	39.2	2	6	248	0.00	29.831 
06:00	47.0	47.0	47.0	74	39.1	2	6	248	0.00	29.835 
06:05	47.0	47.0	47.0	74	39.1	2	5	248	0.00	29.837 
06:10	46.8	46.8	46.8	74	39.0	2	5	248	0.00	29.842 
06:15	46.8	46.8	46.8	74	39.0	2	7	248	0.00	29.842 
06:20	46.8	46.8	46.8	74	39.0	2	6	248	0.00	29.845 
06:25	46.7	46.7	46.7	74	38.9	3	7	248	0.00	29.848 
06:30	46.7	46.7	46.7	74	38.9	2	5	248	0.00	29.851 
06:35	46.7	46.7	46.7	74	38.9	2	4	248	0.00	29.847 
06:40	46.7	46.7	46.7	75	39.2	3	7	248	0.00	29.857 
06:45	46.5	46.5	46.5	75	39.0	2	6	248	0.00	29.860 
06:50	46.5	46.5	46.5	75	39.0	2	6	248	0.00	29.861 
06:55	46.7	46.7	46.7	75	39.2	2	6	248	0.00	29.860 
07:00	46.8	46.8	46.8	74	39.0	2	7	248	0.00	29.861 
07:05	47.1	47.1	47.1	73	38.9	3	7	248	0.00	29.863 
07:10	47.4	47.4	47.4	73	39.2	3	9	248	0.00	29.866 
07:15	47.6	47.6	47.6	73	39.4	2	9	248	0.00	29.866 
07:20	47.9	47.9	47.9	72	39.3	3	9	248	0.00	29.868 
07:25	48.2	48.2	48.2	71	39.2	3	9	248	0.00	29.867 
07:30	48.5	48.5	48.5	71	39.5	2	6	248	0.00	29.866 
07:35	48.8	47.5	48.8	69	39.1	4	9	248	0.00	29.868 
07:40	49.1	49.1	49.1	69	39.4	3	9	248	0.00	29.868 
07:45	49.4	49.4	49.4	68	39.3	2	7	248	0.00	29.871 
07:50	49.5	48.3	49.5	68	39.4	4	10	248	0.00	29.873 
07:55	49.8	48.6	49.8	67	39.3	4	11	248	0.00	29.872 
08:00	50.1	50.1	50.1	67	39.6	3	7	248	0.00	29.872 
08:05	50.4	50.4	50.4	67	39.9	2	7	270	0.00	29.879 
08:10	50.7	50.7	50.7	65	39.4	3	13	248	0.00	29.881 
08:15	50.8	50.8	50.8	66	39.9	3	6	270	0.00	29.882 
08:20	51.0	51.0	51.0	65	39.7	4	10	270	0.00	29.883 
08:25	51.1	51.1	51.1	65	39.7	4	13	270	0.00	29.885 
08:30	51.6	51.6	51.6	64	39.8	3	6	270	0.00	29.884 
08:35	51.9	51.9	51.9	63	39.7	3	10	248	0.00	29.883 
08:40	51.9	51.9	51.9	63	39.7	4	10	270	0.00	29.883 
08:45	52.2	52.2	52.2	64	40.4	3	7	248	0.00	29.883 
08:50	52.5	52.5	52.5	63	40.3	3	12	270	0.00	29.883 
08:55	52.8	52.8	52.8	63	40.6	3	10	270	0.00	29.884 
09:00	52.9	52.9	52.9	62	40.2	4	12	270	0.00	29.883 
09:05	53.2	53.2	53.2	63	40.9	4	11	270	0.00	29.890 
09:10	53.5	53.5	53.5	61	40.4	4	11	270	0.00	29.886 
09:15	53.6	53.6	53.6	61	40.5	4	11	270	0.00	29.889 
09:20	53.8	53.8	53.8	61	40.7	4	11	270	0.00	29.894 
09:25	54.1	54.1	54.1	61	41.0	5	16	270	0.00	29.894 
09:30	54.4	54.4	54.4	61	41.2	4	12	270	0.00	29.894 
09:35	54.8	54.8	54.8	59	40.7	3	9	270	0.00	29.895 
09:40	55.1	55.1	55.1	60	41.5	4	10	270	0.00	29.896 
09:45	55.4	55.4	55.4	58	40.9	4	11	270	0.00	29.895 
09:50	55.6	55.6	55.6	58	41.1	5	12	270	0.00	29.895 
09:55	56.3	56.3	56.3	57	41.3	4	12	270	0.00	29.896 
10:00	56.7	56.7	56.7	55	40.7	4	10	270	0.00	29.899 
10:05	57.0	57.0	57.0	55	41.0	4	7	270	0.00	29.900 
10:10	57.5	57.5	57.5	54	41.0	5	12	270	0.00	29.899 
10:15	58.0	58.0	58.0	54	41.4	4	10	270	0.00	29.898 
10:20	58.7	58.7	58.7	55	42.6	3	6	270	0.00	29.900 
10:25	58.7	58.7	58.7	52	41.1	5	14	270	0.00	29.903 
10:30	58.9	58.9	58.9	53	41.8	4	10	270	0.00	29.905 
10:35	58.9	58.9	58.9	51	40.8	5	11	270	0.00	29.901 
10:40	59.3	59.3	59.3	53	42.2	5	14	270	0.00	29.901 
10:45	59.8	59.8	59.8	50	41.1	4	10	270	0.00	29.902 
10:50	60.2	60.2	60.2	50	41.5	5	12	270	0.00	29.904 
10:55	59.9	59.9	59.9	48	40.2	7	16	270	0.00	29.905 
11:00	60.1	60.1	60.1	50	41.4	6	16	270	0.00	29.906 
11:05	60.4	60.4	60.4	50	41.7	5	11	270	0.00	29.907 
11:10	60.7	60.7	60.7	49	41.4	6	14	270	0.00	29.908 
11:15	61.2	61.2	61.2	51	42.9	5	18	270	0.00	29.908 
11:20	61.2	61.2	61.2	49	41.9	6	14	270	0.00	29.908 
11:25	61.2	61.2	61.2	48	41.3	5	11	270	0.00	29.908 
11:30	61.5	61.5	61.5	50	42.7	6	14	270	0.00	29.911 
11:35	61.3	61.3	61.3	50	42.5	7	19	270	0.00	29.913 
11:40	61.5	61.5	61.5	48	41.6	5	13	270	0.00	29.909 
11:45	62.0	62.0	62.0	47	41.5	5	9	270	0.00	29.911 
11:50	62.4	62.4	62.4	45	40.8	5	14	270	0.00	29.914 
11:55	62.3	62.3	62.3	48	42.4	5	19	270	0.00	29.910 
12:00	62.3	62.3	62.3	46	41.3	6	15	270	0.00	29.915 
12:05	62.3	62.3	62.3	49	42.9	5	16	270	0.00	29.917 
12:10	62.4	62.4	62.4	50	43.5	5	12	270	0.00	29.912 
12:15	62.9	62.9	62.9	47	42.4	5	12	270	0.00	29.911 
12:20	63.5	63.5	63.5	46	42.3	3	6	270	0.00	29.912 
12:25	63.7	63.7	63.7	46	42.5	4	9	270	0.00	29.915 
12:30	63.7	63.7	63.7	47	43.1	5	14	270	0.00	29.916 
12:35	63.9	63.9	63.9	47	43.3	4	9	270	0.00	29.914 
12:40	64.0	64.0	64.0	45	42.2	4	9	270	0.00	29.918 
12:45	64.2	64.2	64.2	46	43.0	5	12	270	0.00	29.918 
12:50	64.3	64.3	64.3	47	43.6	4	14	270	0.00	29.916 
12:55	64.2	64.2	64.2	44	41.8	6	16	270	0.00	29.919 
13:00	64.3	64.3	64.3	46	43.1	6	16	270	0.00	29.919 
13:05	64.5	64.5	64.5	42	40.9	6	14	270	0.00	29.918 
13:10	64.7	64.7	64.7	46	43.4	5	12	270	0.00	29.920 
13:15	64.7	64.7	64.7	44	42.3	6	13	270	0.00	29.918 
13:20	64.7	64.7	64.7	46	43.4	6	12	270	0.00	29.918 
13:25	65.0	65.0	65.0	48	44.8	5	12	270	0.00	29.920 
13:30	65.0	65.0	65.0	43	42.0	6	13	270	0.00	29.914 
13:35	65.3	65.3	65.3	43	42.2	5	12	270	0.00	29.916 
13:40	65.6	65.6	65.6	45	43.7	4	13	270	0.00	29.913 
13:45	65.8	65.8	65.8	42	42.1	4	11	270	0.00	29.915 
13:50	66.1	66.1	66.1	44	43.5	4	11	270	0.00	29.914 
13:55	66.8	66.8	66.8	43	43.6	4	11	248	0.00	29.912 
14:00	66.4	66.4	66.4	41	42.0	6	13	270	0.00	29.910 
14:05	66.6	66.6	66.6	41	42.2	5	16	270	0.00	29.912 
14:10	67.1	67.1	67.1	43	43.8	5	12	270	0.00	29.910 
14:15	67.4	67.4	67.4	41	42.9	5	13	270	0.00	29.907 
14:20	67.6	67.6	67.6	37	40.4	6	16	270	0.00	29.915 
14:25	67.6	67.6	67.6	41	43.1	4	10	270	0.00	29.909 
14:30	67.9	67.9	67.9	40	42.7	5	13	270	0.00	29.907 
14:35	67.8	67.8	67.8	42	43.9	5	11	270	0.00	29.907 
14:40	67.8	67.8	67.8	40	42.6	7	13	270	0.00	29.910 
14:45	67.4	67.4	67.4	38	40.9	7	19	270	0.00	29.909 
14:50	67.8	67.8	67.8	39	41.9	6	14	270	0.00	29.907 
14:55	67.9	67.9	67.9	39	42.0	6	14	270	0.00	29.909 
15:00	68.4	68.4	68.4	38	41.8	4	10	270	0.00	29.912 
15:05	68.6	68.6	68.6	41	44.0	4	11	270	0.00	29.906 
15:10	68.6	68.6	68.6	41	44.0	4	10	270	0.00	29.907 
15:15	68.6	68.6	68.6	37	41.3	5	12	270	0.00	29.905 
15:20	68.6	68.6	68.6	37	41.3	5	12	270	0.00	29.904 
15:25	68.8	68.8	68.8	39	42.8	3	9	270	0.00	29.903 
15:30	68.9	68.9	68.9	38	42.2	4	11	270	0.00	29.904 
15:35	69.1	69.1	69.1	39	43.1	3	6	270	0.00	29.904 
15:40	69.3	69.3	69.3	40	43.9	4	12	270	0.00	29.907 
15:45	69.1	69.1	69.1	38	42.4	4	10	270	0.00	29.909 
15:50	69.1	69.1	69.1	38	42.4	4	13	270	0.00	29.908 
15:55	69.1	69.1	69.1	40	43.8	3	9	270	0.00	29.910 
16:00	68.9	68.9	68.9	39	42.9	5	12	270	0.00	29.915 
16:05	68.9	68.9	68.9	40	43.6	5	11	248	0.00	29.910 
16:10	68.9	68.9	68.9	40	43.6	4	12	270	0.00	29.910 
16:15	68.1	68.1	68.1	41	43.5	5	9	270	0.00	29.916 
16:20	67.3	67.3	67.3	41	42.8	5	11	248	0.00	29.919 
16:25	66.4	66.4	66.4	41	42.0	5	10	248	0.00	29.920 
16:30	65.8	65.8	65.8	42	42.1	6	15	270	0.00	29.922 
16:35	66.0	66.0	66.0	42	42.2	4	12	248	0.00	29.923 
16:40	66.0	66.0	66.0	43	42.9	3	7	248	0.00	29.923 
16:45	65.5	65.5	65.5	42	41.8	4	13	270	0.00	29.923 
16:50	65.3	65.3	65.3	43	42.2	2	6	248	0.00	29.924 
16:55	65.2	65.2	65.2	43	42.1	3	9	270	0.00	29.926 
17:00	65.2	65.2	65.2	42	41.5	4	9	270	0.00	29.928 
17:05	65.5	65.5	65.5	41	41.2	4	12	248	0.00	29.930 
17:10	65.3	65.3	65.3	41	41.0	3	10	248	0.00	29.935 
17:15	65.0	65.0	65.0	42	41.3	3	7	270	0.00	29.937 
17:20	65.0	65.0	65.0	42	41.3	3	6	270	0.00	29.939 
17:25	65.3	65.3	65.3	42	41.6	4	10	270	0.00	29.939 
17:30	65.6	65.6	65.6	39	40.0	4	14	270	0.00	29.939 
17:35	65.6	65.6	65.6	39	40.0	4	10	270	0.00	29.940 
17:40	65.6	65.6	65.6	39	40.0	3	6	270	0.00	29.941 
17:45	65.5	65.5	65.5	38	39.2	4	10	270	0.00	29.942 
17:50	65.5	65.5	65.5	39	39.9	2	5	270	0.00	29.942 
17:55	65.5	65.5	65.5	38	39.2	2	12	270	0.00	29.945 
18:00	65.3	65.3	65.3	38	39.0	3	6	270	0.00	29.947 
18:05	65.2	65.2	65.2	38	38.9	2	6	270	0.00	29.945 
18:10	65.2	65.2	65.2	39	39.6	2	4	270	0.00	29.950 
18:15	64.8	64.8	64.8	41	40.5	1	2	270	0.00	29.950 
18:20	64.5	64.5	64.5	40	39.6	1	3	248	0.00	29.952 
18:25	64.3	64.3	64.3	40	39.5	1	3	248	0.00	29.953 
18:30	64.2	64.2	64.2	41	40.0	1	3	248	0.00	29.956 
18:35	64.2	64.2	64.2	41	40.0	1	3	270	0.00	29.957 
18:40	63.9	63.9	63.9	42	40.4	0	2	270	0.00	29.958 
18:45	63.7	63.7	63.7	43	40.8	0	1	270	0.00	29.959 
18:50	63.2	63.2	63.2	43	40.3	0	1	270	0.00	29.959 
18:55	62.9	62.9	62.9	44	40.6	0	1	270	0.00	29.958 
19:00	62.6	62.6	62.6	44	40.4	0	1	270	0.00	29.959 
19:05	62.1	62.1	62.1	45	40.5	0	1	270	0.00	29.956 
19:10	61.8	61.8	61.8	46	40.8	0	1	270	0.00	29.956 
19:15	61.2	61.2	61.2	47	40.8	0	0	---	0.00	29.959 
19:20	60.7	60.7	60.7	48	40.9	0	0	---	0.00	29.962 
19:25	60.1	60.1	60.1	49	40.9	0	0	---	0.00	29.965 
19:30	59.5	59.5	59.5	50	40.8	0	0	---	0.00	29.966 
19:35	58.9	58.9	58.9	51	40.8	0	0	---	0.00	29.970 
19:40	58.3	58.3	58.3	51	40.3	0	0	---	0.00	29.973 
19:45	57.6	57.6	57.6	53	40.6	0	0	---	0.00	29.974 
19:50	57.0	57.0	57.0	54	40.5	0	0	---	0.00	29.977 
19:55	56.5	56.5	56.5	57	41.5	0	0	---	0.00	29.978 
20:00	56.0	56.0	56.0	58	41.4	0	0	---	0.00	29.979 
20:05	55.6	55.6	55.6	58	41.1	0	0	---	0.00	29.979 
20:10	55.1	55.1	55.1	60	41.5	0	0	---	0.00	29.983 
20:15	54.5	54.5	54.5	62	41.7	0	0	---	0.00	29.986 
20:20	54.2	54.2	54.2	62	41.5	0	0	---	0.00	29.988 
20:25	53.9	53.9	53.9	63	41.6	0	0	---	0.00	29.990 
20:30	53.5	53.5	53.5	64	41.6	0	0	---	0.00	29.991 
20:35	53.2	53.2	53.2	64	41.3	0	0	---	0.00	29.991 
20:40	52.9	52.9	52.9	65	41.5	0	0	---	0.00	29.991 
20:45	52.8	52.8	52.8	66	41.8	0	0	---	0.00	29.991 
20:50	52.3	52.3	52.3	68	42.1	0	0	---	0.00	29.991 
20:55	52.0	52.0	52.0	68	41.8	0	0	---	0.00	29.993 
21:00	51.9	51.9	51.9	69	42.1	0	0	---	0.00	29.992 
21:05	51.6	51.6	51.6	69	41.8	0	0	---	0.00	29.989 
21:10	51.3	51.3	51.3	70	41.9	0	0	---	0.00	29.989 
21:15	51.0	51.0	51.0	71	41.9	0	0	---	0.00	29.989 
21:20	50.8	50.8	50.8	71	41.7	0	0	---	0.00	29.990 
21:25	50.7	50.7	50.7	71	41.6	0	0	---	0.00	29.990 
21:30	50.5	50.5	50.5	72	41.8	0	0	---	0.00	29.990 
21:35	50.4	50.4	50.4	72	41.7	0	0	---	0.00	29.991 
21:40	50.4	50.4	50.4	72	41.7	0	0	---	0.00	29.991 
21:45	50.4	50.4	50.4	72	41.7	0	0	---	0.00	29.991 
21:50	50.2	50.2	50.2	73	41.9	0	0	---	0.00	29.990 
21:55	50.2	50.2	50.2	74	42.2	0	0	---	0.00	29.986 
22:00	50.1	50.1	50.1	73	41.8	0	0	---	0.00	29.983 
22:05	49.9	49.9	49.9	74	41.9	0	0	---	0.00	29.981 
22:10	49.8	49.8	49.8	74	41.9	0	0	---	0.00	29.979 
22:15	49.5	49.5	49.5	75	41.9	0	0	---	0.00	29.974 
22:20	49.4	49.4	49.4	75	41.8	0	0	---	0.00	29.976 
22:25	49.1	49.1	49.1	76	41.9	0	0	---	0.00	29.976 
22:30	48.9	48.9	48.9	77	42.0	0	0	---	0.00	29.977 
22:35	48.9	48.9	48.9	77	42.0	0	0	---	0.00	29.977 
22:40	48.9	48.9	48.9	77	42.0	0	0	---	0.00	29.977 
22:45	48.8	48.8	48.8	78	42.2	0	0	---	0.00	29.977 
22:50	48.8	48.8	48.8	79	42.6	0	0	---	0.00	29.976 
22:55	48.6	48.6	48.6	80	42.7	0	0	---	0.00	29.975 
23:00	48.6	48.6	48.6	82	43.4	0	0	---	0.00	29.974 
23:05	48.5	48.5	48.5	83	43.6	0	0	---	0.00	29.972 
23:10	48.3	48.3	48.3	83	43.4	0	0	---	0.00	29.972 
23:15	48.2	48.2	48.2	83	43.3	0	0	---	0.00	29.972 
23:20	47.9	47.9	47.9	83	43.0	0	0	---	0.00	29.972 
23:25	47.7	47.7	47.7	84	43.1	0	0	---	0.00	29.971 
23:30	47.6	47.6	47.6	84	43.0	0	0	---	0.00	29.971 
23:35	47.3	47.3	47.3	84	42.7	0	0	---	0.00	29.970 
23:40	47.1	47.1	47.1	84	42.5	0	0	---	0.00	29.968 
23:45	47.0	47.0	47.0	83	42.1	0	0	---	0.00	29.963 
23:50	46.8	46.8	46.8	83	41.9	0	0	---	0.00	29.962 
23:55	46.5	46.5	46.5	84	41.9	0	0	---	0.00	29.960 

CoCoRaHS
IN-AL-39
A2 Web Hosting
Creative Commons License
GoDaddy
Look for:

loaded 2017-10-17 22:36:38 • last modified 2010-11-18 10:43:29
Privacy PolicyDisclaimer
• wx.awcolley.com is powered by PmWiki v.2002016 •
• all content (unless otherwise noted) © 2017 A W Colley